createdAt,value
2018-01-01T00:00:34.248Z,9.50
2018-01-01T00:03:03.404Z,9.60
2018-01-01T00:05:32.396Z,9.70
2018-01-01T00:08:01.081Z,9.70
2018-01-01T00:10:30.274Z,9.70
2018-01-01T00:12:58.760Z,9.60
2018-01-01T00:15:26.929Z,9.70
2018-01-01T00:17:56.182Z,9.70
2018-01-01T00:20:25.286Z,9.70
2018-01-01T00:22:58.626Z,9.70
2018-01-01T00:25:26.905Z,9.70
2018-01-01T00:27:55.093Z,9.60
2018-01-01T00:30:24.426Z,9.60
2018-01-01T00:33:00.742Z,9.50
2018-01-01T00:35:41.872Z,9.50
2018-01-01T00:38:11.352Z,9.50
2018-01-01T00:40:41.727Z,9.50
2018-01-01T00:43:13.581Z,9.50
2018-01-01T00:45:42.028Z,9.40
2018-01-01T00:48:16.778Z,9.50
2018-01-01T00:50:46.086Z,9.50
2018-01-01T00:53:17.376Z,9.40
2018-01-01T00:55:45.831Z,9.40
2018-01-01T00:58:14.021Z,9.40
2018-01-01T01:00:42.432Z,9.20
2018-01-01T01:03:19.933Z,9.20
2018-01-01T01:05:49.176Z,9.00
2018-01-01T01:08:18.496Z,8.90
2018-01-01T01:10:47.538Z,8.90
2018-01-01T01:13:17.740Z,8.90
2018-01-01T01:15:46.764Z,8.90
2018-01-01T01:18:16.421Z,8.70
2018-01-01T01:20:45.454Z,8.70
2018-01-01T01:23:15.200Z,8.70
2018-01-01T01:25:43.879Z,8.70
2018-01-01T01:28:12.074Z,8.60
2018-01-01T01:30:40.478Z,8.60
2018-01-01T01:33:15.435Z,8.50
2018-01-01T01:35:49.145Z,8.40
2018-01-01T01:38:18.114Z,8.20
2018-01-01T01:40:46.889Z,8.20
2018-01-01T01:43:18.446Z,8.20
2018-01-01T01:45:46.588Z,8.10
2018-01-01T01:48:14.736Z,8.10
2018-01-01T01:50:42.917Z,8.00
2018-01-01T01:53:12.733Z,7.90
2018-01-01T01:55:42.296Z,7.90
2018-01-01T01:58:10.634Z,7.90
2018-01-01T02:00:38.860Z,7.80
2018-01-01T02:03:07.549Z,7.80
2018-01-01T02:05:35.724Z,7.70
2018-01-01T02:08:06.139Z,7.70
2018-01-01T02:10:34.308Z,7.60
2018-01-01T02:13:05.753Z,7.60
2018-01-01T02:15:33.932Z,7.60
2018-01-01T02:18:02.146Z,7.60
2018-01-01T02:20:31.971Z,7.50
2018-01-01T02:23:00.164Z,7.50
2018-01-01T02:25:28.673Z,7.50
2018-01-01T02:27:57.183Z,7.50
2018-01-01T02:30:26.175Z,7.60
2018-01-01T02:32:55.737Z,7.50
2018-01-01T02:35:24.721Z,7.50
2018-01-01T02:37:52.984Z,7.50
2018-01-01T02:40:22.877Z,7.50
2018-01-01T02:42:52.135Z,7.60
2018-01-01T02:45:20.817Z,7.50
2018-01-01T02:47:52.982Z,7.60
2018-01-01T02:50:21.176Z,7.60
2018-01-01T02:52:49.433Z,7.60
2018-01-01T02:55:18.668Z,7.60
2018-01-01T02:57:47.893Z,7.60
2018-01-01T03:00:17.406Z,7.60
2018-01-01T03:02:45.690Z,7.60
2018-01-01T03:05:17.044Z,7.60
2018-01-01T03:07:45.758Z,7.60
2018-01-01T03:10:14.497Z,7.60
2018-01-01T03:12:42.940Z,7.50
2018-01-01T03:15:13.199Z,7.60
2018-01-01T03:17:42.616Z,7.60
2018-01-01T03:20:11.820Z,7.60
2018-01-01T03:22:42.818Z,7.50
2018-01-01T03:25:11.775Z,7.50
2018-01-01T03:27:42.654Z,7.50
2018-01-01T03:30:11.594Z,7.50
2018-01-01T03:32:40.884Z,7.50
2018-01-01T03:35:10.133Z,7.40
2018-01-01T03:37:43.293Z,7.50
2018-01-01T03:40:11.670Z,7.40
2018-01-01T03:42:41.464Z,7.40
2018-01-01T03:45:09.645Z,7.40
2018-01-01T03:47:38.797Z,7.40
2018-01-01T03:50:06.953Z,7.40
2018-01-01T03:52:36.010Z,7.30
2018-01-01T03:55:04.933Z,7.30
2018-01-01T03:57:33.100Z,7.30
2018-01-01T04:00:02.609Z,7.30
2018-01-01T04:02:32.585Z,7.30
2018-01-01T04:05:02.122Z,7.30
2018-01-01T04:07:31.562Z,7.30
2018-01-01T04:09:59.947Z,7.30
2018-01-01T04:12:30.703Z,7.30
2018-01-01T04:14:59.918Z,7.30
2018-01-01T04:17:28.863Z,7.40
2018-01-01T04:19:57.292Z,7.40
2018-01-01T04:22:25.537Z,7.30
2018-01-01T04:24:54.533Z,7.40
2018-01-01T04:27:23.753Z,7.30
2018-01-01T04:29:53.365Z,7.30
2018-01-01T04:32:22.531Z,7.30
2018-01-01T04:34:50.706Z,7.30
2018-01-01T04:37:18.888Z,7.30
2018-01-01T04:39:50.278Z,7.30
2018-01-01T04:42:18.741Z,7.30
2018-01-01T04:44:47.644Z,7.30
2018-01-01T04:47:16.747Z,7.30
2018-01-01T04:49:45.617Z,7.30
2018-01-01T04:52:15.048Z,7.30
2018-01-01T04:54:43.336Z,7.20
2018-01-01T04:57:11.855Z,7.20
2018-01-01T04:59:40.750Z,7.10
2018-01-01T05:02:09.397Z,7.10
2018-01-01T05:04:37.852Z,7.10
2018-01-01T05:07:06.013Z,7.10
2018-01-01T05:09:34.175Z,7.10
2018-01-01T05:12:03.885Z,7.10
2018-01-01T05:14:32.039Z,7.10
2018-01-01T05:17:01.009Z,7.10
2018-01-01T05:19:31.104Z,7.10
2018-01-01T05:21:59.333Z,7.10
2018-01-01T05:24:27.501Z,7.20
2018-01-01T05:26:56.695Z,7.30
2018-01-01T05:29:24.820Z,7.20
2018-01-01T05:31:54.616Z,7.30
2018-01-01T05:34:23.429Z,7.30
2018-01-01T05:36:51.565Z,7.30
2018-01-01T05:39:19.720Z,7.30
2018-01-01T05:41:48.730Z,7.30
2018-01-01T05:44:16.897Z,7.30
2018-01-01T05:46:45.658Z,7.30
2018-01-01T05:49:13.845Z,7.30
2018-01-01T05:51:42.789Z,7.20
2018-01-01T05:54:10.956Z,7.20
2018-01-01T05:56:39.080Z,7.30
2018-01-01T05:59:07.261Z,7.20
2018-01-01T06:01:36.228Z,7.20
2018-01-01T06:04:05.899Z,7.20
2018-01-01T06:06:35.027Z,7.20
2018-01-01T06:09:03.872Z,7.20
2018-01-01T06:11:32.017Z,7.20
2018-01-01T06:14:00.177Z,7.20
2018-01-01T06:16:29.968Z,7.00
2018-01-01T06:18:58.130Z,7.00
2018-01-01T06:21:26.288Z,6.80
2018-01-01T06:23:55.320Z,6.70
2018-01-01T06:26:24.302Z,6.60
2018-01-01T06:28:53.703Z,6.50
2018-01-01T06:31:21.825Z,6.40
2018-01-01T06:33:49.993Z,6.40
2018-01-01T06:36:18.706Z,6.30
2018-01-01T06:38:46.911Z,6.30
2018-01-01T06:41:15.130Z,6.30
2018-01-01T06:43:43.309Z,6.30
2018-01-01T06:46:11.458Z,6.30
2018-01-01T06:48:40.409Z,6.30
2018-01-01T06:51:08.553Z,6.30
2018-01-01T06:53:37.533Z,6.20
2018-01-01T06:56:06.722Z,6.20
2018-01-01T06:58:34.911Z,6.20
2018-01-01T07:01:03.577Z,6.20
2018-01-01T07:03:34.637Z,6.20
2018-01-01T07:06:03.810Z,6.20
2018-01-01T07:08:33.509Z,6.10
2018-01-01T07:11:01.714Z,6.10
2018-01-01T07:13:31.536Z,6.10
2018-01-01T07:16:00.174Z,6.20
2018-01-01T07:18:28.351Z,6.20
2018-01-01T07:20:57.889Z,6.20
2018-01-01T07:23:27.089Z,6.20
2018-01-01T07:25:56.987Z,6.20
2018-01-01T07:28:27.309Z,6.20
2018-01-01T07:30:57.035Z,6.20
2018-01-01T07:33:27.067Z,6.20
2018-01-01T07:35:55.220Z,6.20
2018-01-01T07:38:24.368Z,6.20
2018-01-01T07:40:53.244Z,6.20
2018-01-01T07:43:21.454Z,6.20
2018-01-01T07:45:49.662Z,6.10
2018-01-01T07:48:24.860Z,6.10
2018-01-01T07:50:54.805Z,6.10
2018-01-01T07:53:24.516Z,6.00
2018-01-01T07:55:55.123Z,6.00
2018-01-01T07:58:24.197Z,6.00
2018-01-01T08:00:52.399Z,6.00
2018-01-01T08:03:21.352Z,5.90
2018-01-01T08:05:50.134Z,5.90
2018-01-01T08:08:18.356Z,6.00
2018-01-01T08:10:47.724Z,6.00
2018-01-01T08:13:19.860Z,6.00
2018-01-01T08:15:49.832Z,6.20
2018-01-01T08:18:19.642Z,6.20
2018-01-01T08:20:47.794Z,6.30
2018-01-01T08:23:16.922Z,6.30
2018-01-01T08:25:47.823Z,6.20
2018-01-01T08:28:16.020Z,6.10
2018-01-01T08:30:44.447Z,6.10
2018-01-01T08:33:13.354Z,6.00
2018-01-01T08:35:43.660Z,6.10
2018-01-01T08:38:13.337Z,6.20
2018-01-01T08:40:42.728Z,6.10
2018-01-01T08:43:12.349Z,6.30
2018-01-01T08:45:41.168Z,6.40
2018-01-01T08:48:10.694Z,6.40
2018-01-01T08:50:39.542Z,6.30
2018-01-01T08:53:08.781Z,6.30
2018-01-01T08:55:41.629Z,6.30
2018-01-01T08:58:12.551Z,6.30
2018-01-01T09:00:43.587Z,6.40
2018-01-01T09:03:14.749Z,6.50
2018-01-01T09:05:43.955Z,6.50
2018-01-01T09:08:12.228Z,6.50
2018-01-01T09:10:40.536Z,6.50
2018-01-01T09:13:09.215Z,6.50
2018-01-01T09:15:38.181Z,6.70
2018-01-01T09:18:08.406Z,6.70
2018-01-01T09:20:38.012Z,6.90
2018-01-01T09:23:07.377Z,7.10
2018-01-01T09:25:36.644Z,7.20
2018-01-01T09:28:04.797Z,7.20
2018-01-01T09:30:34.030Z,7.20
2018-01-01T09:33:03.376Z,7.20
2018-01-01T09:35:33.080Z,7.00
2018-01-01T09:38:05.600Z,7.00
2018-01-01T09:40:35.580Z,7.00
2018-01-01T09:43:05.316Z,7.00
2018-01-01T09:45:34.305Z,6.90
2018-01-01T09:48:03.644Z,7.00
2018-01-01T20:35:17.749Z,6.80
2018-01-01T20:37:47.045Z,6.80
2018-01-01T20:40:17.310Z,6.80
2018-01-01T20:42:45.593Z,6.70
2018-01-01T20:45:14.502Z,6.60
2018-01-01T20:47:42.725Z,6.50
2018-01-01T20:50:11.448Z,6.50
2018-01-01T20:52:40.520Z,6.50
2018-01-01T20:55:10.129Z,6.50
2018-01-01T20:57:39.159Z,6.40
2018-01-01T21:00:09.055Z,6.40
2018-01-01T21:02:40.745Z,6.40
2018-01-01T21:05:09.484Z,6.40
2018-01-01T21:10:34.607Z,6.40
2018-01-01T21:13:05.232Z,6.40
2018-01-01T21:15:34.509Z,6.40
2018-01-01T21:18:04.809Z,6.30
2018-01-01T21:20:35.255Z,6.30
2018-01-01T21:23:04.280Z,6.30
2018-01-01T21:25:33.513Z,6.20
2018-01-01T21:28:01.710Z,6.20
2018-01-01T21:30:31.160Z,6.10
2018-01-01T21:33:00.542Z,6.00
2018-01-01T21:35:29.513Z,6.00
2018-01-01T21:37:58.937Z,6.00
2018-01-01T21:40:27.092Z,6.00
2018-01-01T21:42:55.299Z,6.00
2018-01-01T21:45:24.313Z,6.00
2018-01-01T21:47:52.482Z,6.00
2018-01-01T21:50:20.722Z,6.00
2018-01-01T21:52:50.800Z,6.00
2018-01-01T21:55:19.051Z,6.00
2018-01-01T21:57:48.573Z,6.10
2018-01-01T22:00:17.706Z,6.00
2018-01-01T22:02:45.994Z,6.10
2018-01-01T22:05:14.609Z,6.10
2018-01-01T22:07:44.393Z,6.40
2018-01-01T22:10:13.337Z,6.30
2018-01-01T22:12:42.536Z,6.40
2018-01-01T22:15:10.710Z,6.50
2018-01-01T22:17:39.776Z,6.50
2018-01-01T22:20:08.716Z,6.60
2018-01-01T22:22:37.503Z,6.50
2018-01-01T22:25:05.661Z,6.60
2018-01-01T22:27:33.818Z,6.60
2018-01-01T22:30:04.702Z,6.50
2018-01-01T22:32:35.137Z,6.50
2018-01-01T22:35:03.297Z,6.50
2018-01-01T22:37:33.131Z,6.60
2018-01-01T22:40:01.301Z,6.60
2018-01-01T22:42:49.810Z,6.50
2018-01-01T22:45:19.148Z,6.50
2018-01-01T22:47:48.016Z,6.40
2018-01-01T22:50:16.847Z,6.20
2018-01-01T22:52:48.960Z,5.80
2018-01-01T22:55:17.168Z,5.80
2018-01-01T22:57:49.222Z,5.70
2018-01-01T23:00:17.620Z,5.70
2018-01-01T23:02:46.655Z,5.60
2018-01-01T23:05:16.890Z,5.60
2018-01-01T23:07:45.064Z,5.60
2018-01-01T23:10:13.617Z,5.50
2018-01-01T23:12:45.561Z,5.30
2018-01-01T23:15:14.336Z,5.30
2018-01-01T23:17:43.480Z,5.30
2018-01-01T23:20:11.714Z,5.20
2018-01-01T23:22:41.339Z,5.10
2018-01-01T23:25:09.612Z,5.10
2018-01-01T23:27:37.819Z,5.10
2018-01-01T23:30:06.744Z,5.10
2018-01-01T23:32:41.064Z,5.10
2018-01-01T23:35:12.972Z,5.10
2018-01-01T23:37:42.095Z,5.10
2018-01-01T23:40:11.103Z,5.20
2018-01-01T23:42:42.230Z,5.20
2018-01-01T23:45:10.430Z,5.20
2018-01-01T23:47:42.420Z,5.20
2018-01-01T23:50:10.569Z,5.20
2018-01-01T23:52:41.779Z,5.20
2018-01-01T23:55:10.936Z,5.20
2018-01-01T23:57:39.800Z,5.20
